Time;durP1;ratioP1;P1;durP2;ratioP2;P2;SDS_P1;SDS_P2;PMS_P1;PMS_P2;Temp;Humidity;BMP_temperature;BMP_pressure;BME280_temperature;BME280_humidity;BME280_pressure;Samples;Min_cycle;Max_cycle;Signal;HPM_P1;HPM_P2
2021/03/24 00:01:44;;;;;;;;;;;;;;;18.09;61.61;101751.28;5133037;27;1212;-78
2021/03/24 00:04:11;;;;;;;;;;;;;;;18.08;61.75;101749.53;5134439;27;951;-78
2021/03/24 00:06:37;;;;;;;;;;;;;;;18.07;61.97;101747.81;5133858;27;1976;-78
2021/03/24 00:09:05;;;;;;;;;;;;;;;18.07;61.77;101750.44;5134003;27;1140;-78
2021/03/24 00:11:32;;;;;;;;;;;;;;;18.08;61.98;101752.19;5115556;27;1354;-78
2021/03/24 00:13:58;;;;;;;;;;;;;;;18.07;61.53;101755.72;5133478;27;1126;-79
2021/03/24 00:16:24;;;;;;;;;;;;;;;18.03;61.88;101745.28;5133693;27;1227;-79
2021/03/24 00:18:51;;;;;;;;;;;;;;;18.03;61.74;101741.78;5098508;27;1298;-79
2021/03/24 00:21:17;;;;;;;;;;;;;;;18.03;62.02;101747.94;5098642;27;1338;-79
2021/03/24 00:23:43;;;;;;;;;;;;;;;18.05;61.87;101745.25;5115764;27;1323;-79
2021/03/24 00:26:10;;;;;;;;;;;;;;;18.06;61.69;101743.44;5098557;27;1969;-80
2021/03/24 00:28:36;;;;;;;;;;;;;;;18.06;61.85;101746.94;5133843;27;1100;-79
2021/03/24 00:31:03;;;;;;;;;;;;;;;18.04;61.80;101735.63;5099138;27;1440;-79
2021/03/24 00:33:29;;;;;;;;;;;;;;;18.05;61.99;101739.09;5133867;27;1137;-80
2021/03/24 00:35:56;;;;;;;;;;;;;;;18.01;61.86;101738.38;5114736;27;1224;-79
2021/03/24 00:38:23;;;;;;;;;;;;;;;18.01;61.57;101733.97;5097404;27;1136;-79
2021/03/24 00:40:52;;;;;;;;;;;;;;;18.03;61.25;101731.25;5114781;27;1228;-79
2021/03/24 00:43:19;;;;;;;;;;;;;;;18.03;61.22;101729.47;5133968;27;1053;-80
2021/03/24 00:45:45;;;;;;;;;;;;;;;18.03;61.30;101734.75;5133539;27;1914;-80
2021/03/24 00:48:17;;;;;;;;;;;;;;;18.05;61.08;101731.19;5133346;27;1091;-79
2021/03/24 00:50:44;;;;;;;;;;;;;;;18.03;61.19;101725.97;5132632;27;1382;-79
2021/03/24 00:53:10;;;;;;;;;;;;;;;18.02;60.95;101725.09;5133783;27;718;-80
2021/03/24 00:55:38;;;;;;;;;;;;;;;18.03;60.90;101729.47;5133971;27;952;-79
2021/03/24 00:58:06;;;;;;;;;;;;;;;18.00;61.15;101728.72;5133386;27;1282;-79
2021/03/24 01:00:34;;;;;;;;;;;;;;;18.01;61.10;101720.78;5114072;27;1203;-78
2021/03/24 01:03:00;;;;;;;;;;;;;;;18.01;61.23;101714.63;5114083;27;1287;-77
2021/03/24 01:05:27;;;;;;;;;;;;;;;18.03;61.11;101715.44;5098011;28;1964;-77
2021/03/24 01:07:54;;;;;;;;;;;;;;;18.05;61.07;101716.25;5075158;28;1273;-77
2021/03/24 01:10:23;;;;;;;;;;;;;;;18.02;61.00;101708.47;5111091;28;991;-77
2021/03/24 01:12:49;;;;;;;;;;;;;;;17.99;61.27;101714.69;5089135;28;1216;-77
2021/03/24 01:15:15;;;;;;;;;;;;;;;17.99;61.16;101704.13;5073102;28;1242;-77
2021/03/24 01:17:42;;;;;;;;;;;;;;;18.00;61.11;101705.88;5091327;28;1241;-76
2021/03/24 01:20:08;;;;;;;;;;;;;;;18.00;60.98;101705.00;5073084;28;1282;-76
2021/03/24 01:22:50;;;;;;;;;;;;;;;18.01;60.93;101706.72;5094941;28;1361;-76
2021/03/24 01:25:17;;;;;;;;;;;;;;;18.02;60.96;101708.47;5111672;28;1989;-76
2021/03/24 01:27:43;;;;;;;;;;;;;;;18.02;60.84;101717.19;5111522;28;1310;-76
2021/03/24 01:30:09;;;;;;;;;;;;;;;18.01;60.93;101710.22;5093650;28;1020;-80
2021/03/24 01:32:36;;;;;;;;;;;;;;;18.01;60.74;101704.09;5111697;28;1275;-80
2021/03/24 01:35:03;;;;;;;;;;;;;;;18.01;60.70;101696.19;5093293;28;1339;-80
2021/03/24 01:37:29;;;;;;;;;;;;;;;17.99;60.82;101703.31;5111386;28;1295;-80
2021/03/24 01:39:57;;;;;;;;;;;;;;;17.98;60.83;101697.16;5074136;28;1144;-78
2021/03/24 01:42:24;;;;;;;;;;;;;;;18.00;60.87;101695.31;5057422;28;1319;-79
2021/03/24 01:44:59;;;;;;;;;;;;;;;18.00;60.89;101697.09;5091654;28;1071;-79
2021/03/24 01:47:27;;;;;;;;;;;;;;;18.01;60.90;101697.03;5073229;28;1260;-79
2021/03/24 01:49:53;;;;;;;;;;;;;;;18.00;60.79;101694.44;5091728;28;1254;-79
2021/03/24 01:52:24;;;;;;;;;;;;;;;18.00;60.80;101699.72;5072780;28;1447;-79
2021/03/24 01:54:51;;;;;;;;;;;;;;;18.03;60.61;101694.34;5090724;28;1042;-79
2021/03/24 01:57:23;;;;;;;;;;;;;;;18.00;60.55;101695.31;5072223;28;1424;-78
2021/03/24 01:59:51;;;;;;;;;;;;;;;18.01;60.50;101696.19;5071762;28;1613;-77
2021/03/24 02:02:19;;;;;;;;;;;;;;;18.00;60.68;101699.72;5109574;28;1248;-77
2021/03/24 02:04:49;;;;;;;;;;;;;;;18.00;60.43;101697.09;5099359;28;1092;-77
2021/03/24 02:07:15;;;;;;;;;;;;;;;18.00;60.43;101687.41;5071895;28;1993;-76
2021/03/24 02:09:52;;;;;;;;;;;;;;;17.98;60.73;101686.63;5071807;28;1210;-76
2021/03/24 02:12:18;;;;;;;;;;;;;;;18.01;60.76;101690.91;5090154;28;1220;-76
2021/03/24 02:14:54;;;;;;;;;;;;;;;18.01;60.40;101685.63;5071722;28;1203;-76
2021/03/24 02:17:23;;;;;;;;;;;;;;;18.02;60.31;101688.19;5071747;28;1431;-76
2021/03/24 02:20:13;;;;;;;;;;;;;;;18.02;60.52;101682.09;5089344;28;1141;-75
2021/03/24 02:22:50;;;;;;;;;;;;;;;18.02;60.40;101682.09;5079145;28;1252;-75
2021/03/24 02:25:21;;;;;;;;;;;;;;;18.02;60.50;101682.09;5088356;28;1918;-75
2021/03/24 02:27:51;;;;;;;;;;;;;;;18.04;60.49;101682.88;5089863;28;1296;-75
2021/03/24 02:30:21;;;;;;;;;;;;;;;18.04;60.31;101680.25;5055232;28;1529;-76
2021/03/24 02:32:50;;;;;;;;;;;;;;;18.05;60.13;101675.84;5089623;28;1240;-76
2021/03/24 02:35:23;;;;;;;;;;;;;;;18.05;60.21;101683.75;5055455;28;1639;-75
2021/03/24 02:37:51;;;;;;;;;;;;;;;18.06;60.04;101677.53;5054794;28;1301;-75
2021/03/24 02:40:19;;;;;;;;;;;;;;;18.06;60.13;101680.16;5071593;28;1205;-78
2021/03/24 02:42:47;;;;;;;;;;;;;;;18.05;60.62;101675.84;5071858;28;1248;-77
2021/03/24 02:45:15;;;;;;;;;;;;;;;18.03;60.47;101670.59;5072016;28;1985;-77
2021/03/24 02:47:46;;;;;;;;;;;;;;;18.02;60.69;101672.38;5072580;28;1302;-78
2021/03/24 02:50:13;;;;;;;;;;;;;;;18.02;60.67;101682.09;5071850;28;1243;-77
2021/03/24 02:52:43;;;;;;;;;;;;;;;18.02;60.32;101672.38;5070972;28;1167;-77
2021/03/24 02:55:12;;;;;;;;;;;;;;;18.05;60.15;101673.19;5071162;28;1244;-77
2021/03/24 02:57:38;;;;;;;;;;;;;;;18.02;60.42;101672.38;5054877;28;1263;-77
2021/03/24 03:00:06;;;;;;;;;;;;;;;18.01;60.24;101673.31;5070719;28;1119;-75
2021/03/24 03:02:36;;;;;;;;;;;;;;;18.03;60.41;101674.09;5075262;28;1328;-77
2021/03/24 03:05:15;;;;;;;;;;;;;;;18.01;60.54;101678.59;5091247;28;1134;-78
2021/03/24 03:07:44;;;;;;;;;;;;;;;18.00;60.53;101670.72;5109047;28;1252;-79
2021/03/24 03:10:31;;;;;;;;;;;;;;;18.00;60.15;101668.94;5090783;28;1183;-79
2021/03/24 03:13:00;;;;;;;;;;;;;;;18.02;60.20;101676.81;5090596;28;1176;-80
2021/03/24 03:15:30;;;;;;;;;;;;;;;18.00;60.16;101674.22;5109970;28;1143;-78
2021/03/24 03:18:00;;;;;;;;;;;;;;;18.01;59.92;101675.97;5091166;28;1248;-76
2021/03/24 03:20:31;;;;;;;;;;;;;;;18.00;60.17;101671.59;5075005;28;1916;-76
2021/03/24 03:23:01;;;;;;;;;;;;;;;18.01;60.30;101670.69;5109479;28;1350;-75
2021/03/24 03:25:29;;;;;;;;;;;;;;;18.01;60.13;101677.72;5108921;28;1979;-75
2021/03/24 03:27:57;;;;;;;;;;;;;;;18.01;60.25;101675.97;5109420;28;1205;-76
2021/03/24 03:30:26;;;;;;;;;;;;;;;18.03;60.05;101673.25;5109864;28;1151;-76
2021/03/24 03:32:54;;;;;;;;;;;;;;;18.01;60.14;101670.69;5090719;28;1315;-77
2021/03/24 03:35:22;;;;;;;;;;;;;;;18.01;60.08;101669.81;5074688;28;1393;-77
2021/03/24 03:37:50;;;;;;;;;;;;;;;18.00;60.36;101657.53;5074679;28;1214;-79
2021/03/24 03:40:17;;;;;;;;;;;;;;;17.99;60.24;101667.22;5109545;28;1037;-75
2021/03/24 03:42:44;;;;;;;;;;;;;;;17.99;60.02;101677.78;5090967;28;1232;-77
2021/03/24 03:45:11;;;;;;;;;;;;;;;17.99;60.24;101669.88;5074647;28;1914;-76
2021/03/24 03:47:41;;;;;;;;;;;;;;;17.98;60.15;101670.81;5109604;28;1311;-77
2021/03/24 03:50:09;;;;;;;;;;;;;;;18.01;59.97;101680.38;5109186;28;1258;-77
2021/03/24 03:52:35;;;;;;;;;;;;;;;18.00;60.41;101682.13;5109194;28;1371;-76
2021/03/24 03:55:05;;;;;;;;;;;;;;;18.01;60.15;101683.00;5109364;28;1001;-76
2021/03/24 03:57:31;;;;;;;;;;;;;;;17.99;59.96;101683.03;5108950;28;1244;-76
2021/03/24 04:00:18;;;;;;;;;;;;;;;17.99;59.92;101679.56;5090888;28;1035;-76
2021/03/24 04:02:50;;;;;;;;;;;;;;;18.01;60.03;101680.38;5108918;28;1242;-78
2021/03/24 04:05:31;;;;;;;;;;;;;;;17.99;60.16;101683.03;5091378;28;1979;-80
2021/03/24 04:08:01;;;;;;;;;;;;;;;18.00;60.15;101681.28;5091244;28;1432;-80
2021/03/24 04:10:29;;;;;;;;;;;;;;;18.00;59.86;101687.41;5091534;28;1264;-80
2021/03/24 04:12:56;;;;;;;;;;;;;;;17.99;60.46;101677.78;5109733;28;1222;-80
2021/03/24 04:15:23;;;;;;;;;;;;;;;17.97;59.86;101679.63;5110134;28;1247;-80
2021/03/24 04:17:55;;;;;;;;;;;;;;;17.97;59.83;101674.34;5109556;28;1228;-80
2021/03/24 04:20:25;;;;;;;;;;;;;;;17.99;59.99;101671.66;5111803;28;1247;-79
2021/03/24 04:22:52;;;;;;;;;;;;;;;18.00;59.87;101660.19;5094856;28;1208;-78
2021/03/24 04:25:29;;;;;;;;;;;;;;;17.99;59.87;101667.22;5077339;28;1973;-78
2021/03/24 04:27:57;;;;;;;;;;;;;;;18.00;59.89;101668.94;5112695;28;1378;-78
2021/03/24 04:30:29;;;;;;;;;;;;;;;18.00;59.65;101673.38;5077362;28;1259;-77
2021/03/24 04:32:55;;;;;;;;;;;;;;;17.99;59.73;101672.50;5094464;28;1262;-77
2021/03/24 04:35:22;;;;;;;;;;;;;;;17.98;59.66;101668.16;5094405;28;1259;-78
2021/03/24 04:37:54;;;;;;;;;;;;;;;17.99;59.78;101672.50;5094303;28;1330;-78
2021/03/24 04:40:28;;;;;;;;;;;;;;;17.97;59.95;101669.06;5094459;28;1172;-80
2021/03/24 04:42:58;;;;;;;;;;;;;;;17.97;59.73;101669.06;5094250;28;1184;-79
2021/03/24 04:45:29;;;;;;;;;;;;;;;18.01;59.73;101669.81;5094177;28;1921;-78
2021/03/24 04:47:59;;;;;;;;;;;;;;;18.00;59.65;101674.22;5094442;28;1370;-77
2021/03/24 04:50:32;;;;;;;;;;;;;;;18.00;59.65;101673.38;5112313;28;1568;-77
2021/03/24 04:53:00;;;;;;;;;;;;;;;18.00;59.59;101671.59;5112284;28;1296;-77
2021/03/24 04:55:34;;;;;;;;;;;;;;;17.99;59.49;101669.88;5112540;28;1233;-77
2021/03/24 04:58:02;;;;;;;;;;;;;;;17.99;59.83;101672.50;5112528;28;1227;-77
2021/03/24 05:00:36;;;;;;;;;;;;;;;17.98;59.96;101673.44;5094154;28;1055;-78
2021/03/24 05:03:06;;;;;;;;;;;;;;;17.98;59.89;101676.06;5093581;28;1250;-77
2021/03/24 05:05:36;;;;;;;;;;;;;;;18.00;59.64;101674.22;5111977;28;1995;-75
2021/03/24 05:08:07;;;;;;;;;;;;;;;18.02;59.76;101679.47;5110786;28;1204;-75
2021/03/24 05:10:34;;;;;;;;;;;;;;;18.02;59.43;101684.72;5112153;28;1306;-76
2021/03/24 05:13:04;;;;;;;;;;;;;;;18.01;59.67;101683.88;5111575;28;1242;-75
2021/03/24 05:15:33;;;;;;;;;;;;;;;17.99;59.66;101683.03;5087732;28;1494;-77
2021/03/24 05:18:00;;;;;;;;;;;;;;;18.02;59.57;101685.56;5110451;28;1381;-76
2021/03/24 05:20:37;;;;;;;;;;;;;;;18.00;59.99;101678.63;5114796;27;1351;-76
2021/03/24 05:23:08;;;;;;;;;;;;;;;18.00;59.84;101676.88;5087156;28;1322;-76
2021/03/24 05:25:46;;;;;;;;;;;;;;;18.00;59.63;101682.13;5090718;28;1969;-76
2021/03/24 05:28:22;;;;;;;;;;;;;;;18.01;59.40;101681.22;5091191;28;792;-76
2021/03/24 05:31:08;;;;;;;;;;;;;;;18.00;59.35;101682.13;5089225;28;1455;-75
2021/03/24 05:33:38;;;;;;;;;;;;;;;18.01;59.31;101685.63;5101453;28;1497;-75
2021/03/24 05:36:14;;;;;;;;;;;;;;;18.00;59.24;101683.91;5072497;28;1314;-75
2021/03/24 05:38:42;;;;;;;;;;;;;;;18.00;59.42;101678.63;5082079;28;1102;-74
2021/03/24 05:41:28;;;;;;;;;;;;;;;18.00;59.47;101692.69;5093222;28;1276;-75
2021/03/24 05:44:14;;;;;;;;;;;;;;;18.01;59.60;101693.53;5083383;28;969;-76
2021/03/24 05:46:59;;;;;;;;;;;;;;;18.01;59.58;101696.19;5097569;28;1929;-75
2021/03/24 05:49:25;;;;;;;;;;;;;;;18.00;59.28;101695.31;5092874;28;1144;-75
2021/03/24 05:51:54;;;;;;;;;;;;;;;18.00;59.28;101695.31;5111138;28;1691;-75
2021/03/24 05:54:24;;;;;;;;;;;;;;;17.99;59.31;101700.66;5083657;28;1593;-74
2021/03/24 05:57:02;;;;;;;;;;;;;;;17.99;59.35;101704.13;5055554;28;1245;-75
2021/03/24 05:59:48;;;;;;;;;;;;;;;18.00;59.33;101705.88;5067581;28;1310;-76
2021/03/24 06:02:17;;;;;;;;;;;;;;;18.00;59.25;101700.59;5075416;28;1291;-75
2021/03/24 06:04:55;;;;;;;;;;;;;;;18.00;59.30;101710.28;5098249;28;1139;-75
2021/03/24 06:07:24;;;;;;;;;;;;;;;17.99;59.15;101701.50;5089711;28;1910;-75
2021/03/24 06:10:02;;;;;;;;;;;;;;;18.00;59.18;101707.63;5072130;28;1167;-76
2021/03/24 06:12:46;;;;;;;;;;;;;;;18.02;59.27;101709.28;5055427;28;1209;-78
2021/03/24 06:15:51;;;;;;;;;;;;;;;18.00;59.36;101710.28;5109700;28;932;-77
2021/03/24 06:18:30;;;;;;;;;;;;;;;17.99;59.25;101713.84;5047028;28;1419;-76
2021/03/24 06:21:17;;;;;;;;;;;;;;;17.98;59.36;101709.47;5030209;28;1307;-76
2021/03/24 06:24:02;;;;;;;;;;;;;;;17.96;59.56;101714.78;5058730;28;1100;-75
2021/03/24 06:26:47;;;;;;;;;;;;;;;17.95;59.85;101713.09;5057295;28;1969;-74
2021/03/24 06:29:25;;;;;;;;;;;;;;;17.96;60.30;101720.06;5055128;28;1249;-75
2021/03/24 06:32:01;;;;;;;;;;;;;;;17.94;60.33;101721.06;5088333;28;1315;-74
2021/03/24 06:34:37;;;;;;;;;;;;;;;17.92;59.90;101722.91;5089783;28;1048;-75
2021/03/24 06:37:17;;;;;;;;;;;;;;;18.02;59.32;101727.75;5090169;28;1258;-78
2021/03/24 06:40:09;;;;;;;;;;;;;;;18.03;61.16;101731.25;5075486;28;1570;-75
2021/03/24 06:42:41;;;;;;;;;;;;;;;18.07;60.98;101729.34;5058545;28;1619;-73
2021/03/24 06:45:20;;;;;;;;;;;;;;;18.01;61.42;101723.41;5063797;28;1552;-72
2021/03/24 06:48:05;;;;;;;;;;;;;;;17.98;62.57;101717.41;5094512;28;1898;-71
2021/03/24 06:50:53;;;;;;;;;;;;;;;18.05;60.08;101725.94;5110240;28;1437;-73
2021/03/24 06:53:22;;;;;;;;;;;;;;;18.14;59.49;101728.22;5074311;28;1249;-72
2021/03/24 06:56:05;;;;;;;;;;;;;;;18.05;61.50;101734.69;5089343;28;1220;-72
2021/03/24 06:58:31;;;;;;;;;;;;;;;18.01;60.70;101730.47;5101650;28;1118;-74
2021/03/24 07:01:16;;;;;;;;;;;;;;;18.13;60.56;101729.13;5109788;28;1192;-77
2021/03/24 07:03:57;;;;;;;;;;;;;;;18.21;59.39;101729.69;5091216;28;1223;-75
2021/03/24 07:06:27;;;;;;;;;;;;;;;18.17;60.06;101728.09;5109085;28;1971;-73
2021/03/24 07:08:56;;;;;;;;;;;;;;;18.13;60.34;101731.75;5099631;28;942;-75
2021/03/24 07:11:29;;;;;;;;;;;;;;;18.10;60.52;101727.47;5089416;28;1260;-78
2021/03/24 07:13:59;;;;;;;;;;;;;;;18.09;60.37;101730.19;5089581;28;902;-77
2021/03/24 07:16:25;;;;;;;;;;;;;;;18.09;60.38;101730.19;5070932;28;1318;-75
2021/03/24 07:19:14;;;;;;;;;;;;;;;18.08;60.41;101724.03;5089121;28;940;-75
2021/03/24 07:21:59;;;;;;;;;;;;;;;18.09;60.38;101732.81;5069711;28;1799;-72
2021/03/24 07:24:25;;;;;;;;;;;;;;;18.07;59.95;101737.25;5055164;28;1638;-73
2021/03/24 07:27:00;;;;;;;;;;;;;;;18.08;60.59;101731.09;5095542;28;1910;-77
2021/03/24 07:29:26;;;;;;;;;;;;;;;18.11;60.11;101736.25;5101107;28;1056;-78
2021/03/24 07:31:59;;;;;;;;;;;;;;;18.10;60.56;101739.78;5089352;28;1212;-75
2021/03/24 07:34:46;;;;;;;;;;;;;;;18.07;60.79;101739.91;5109083;28;1070;-74
2021/03/24 07:37:29;;;;;;;;;;;;;;;18.09;60.59;101746.81;5108609;28;1263;-73
2021/03/24 07:40:16;;;;;;;;;;;;;;;18.06;61.36;101741.66;5089917;28;1282;-73
2021/03/24 07:43:21;;;;;;;;;;;;;;;18.04;61.26;101743.53;5108409;28;1218;-77
2021/03/24 07:45:55;;;;;;;;;;;;;;;18.04;60.75;101748.78;5046240;28;1906;-77
2021/03/24 07:48:37;;;;;;;;;;;;;;;18.00;61.46;101744.53;5047928;28;1084;-77
2021/03/24 07:51:06;;;;;;;;;;;;;;;18.01;60.27;101744.50;5056515;28;1283;-75
2021/03/24 07:53:51;;;;;;;;;;;;;;;18.00;61.17;101750.69;5070592;28;1174;-75
2021/03/24 07:56:53;;;;;;;;;;;;;;;18.03;60.76;101758.47;5073626;28;1263;-77
2021/03/24 07:59:19;;;;;;;;;;;;;;;18.01;61.11;101760.31;5032111;28;1728;-78
2021/03/24 08:01:58;;;;;;;;;;;;;;;17.98;61.20;101759.56;5097695;28;1277;-70
2021/03/24 08:04:48;;;;;;;;;;;;;;;18.00;61.08;101770.91;5111268;28;1271;-70
2021/03/24 08:07:25;;;;;;;;;;;;;;;18.01;61.12;101770.88;5112474;28;1974;-72
2021/03/24 08:10:14;;;;;;;;;;;;;;;18.01;61.42;101775.28;5111280;28;1126;-73
2021/03/24 08:12:40;;;;;;;;;;;;;;;17.98;60.78;101780.66;5092261;28;1302;-73
2021/03/24 08:15:06;;;;;;;;;;;;;;;17.97;61.30;101779.78;5111474;28;1058;-74
2021/03/24 08:17:48;;;;;;;;;;;;;;;17.96;61.55;101787.78;5092486;28;1402;-75
2021/03/24 08:20:15;;;;;;;;;;;;;;;17.93;61.86;101788.72;5092413;28;1728;-75
2021/03/24 08:22:41;;;;;;;;;;;;;;;17.92;61.86;101796.72;5108936;27;1553;-73
2021/03/24 08:25:07;;;;;;;;;;;;;;;17.90;61.75;101794.13;5092433;28;1112;-73
2021/03/24 08:27:33;;;;;;;;;;;;;;;17.88;61.71;101795.94;5092702;28;2017;-73
2021/03/24 08:30:10;;;;;;;;;;;;;;;17.90;60.21;101799.38;5103071;28;1057;-73
2021/03/24 08:32:55;;;;;;;;;;;;;;;17.87;60.62;101799.50;5072587;28;1287;-72
2021/03/24 08:35:34;;;;;;;;;;;;;;;17.87;59.80;101794.22;5090671;28;1055;-73
2021/03/24 08:38:18;;;;;;;;;;;;;;;17.87;58.64;101801.31;5090388;28;1247;-73
2021/03/24 08:40:57;;;;;;;;;;;;;;;17.87;60.28;101796.88;5090136;28;1244;-74
2021/03/24 08:43:27;;;;;;;;;;;;;;;17.90;60.66;101804.66;5106035;28;1132;-73
2021/03/24 08:46:13;;;;;;;;;;;;;;;17.96;61.84;101800.97;5092227;28;1897;-72
2021/03/24 08:48:47;;;;;;;;;;;;;;;17.95;61.92;101801.88;5110506;28;908;-70
2021/03/24 08:51:19;;;;;;;;;;;;;;;17.87;59.23;101799.50;5087109;28;1613;-73
2021/03/24 08:53:55;;;;;;;;;;;;;;;17.81;58.55;101804.16;5089856;28;1045;-72
2021/03/24 08:56:45;;;;;;;;;;;;;;;17.82;59.77;101808.50;5053879;28;1397;-72
2021/03/24 08:59:15;;;;;;;;;;;;;;;17.80;59.79;101808.56;5071703;28;1229;-72
2021/03/24 09:01:50;;;;;;;;;;;;;;;17.79;59.71;101812.09;5090473;28;1244;-71
2021/03/24 09:04:35;;;;;;;;;;;;;;;17.77;59.40;101813.94;5071487;28;1100;-73
2021/03/24 09:07:13;;;;;;;;;;;;;;;17.78;59.16;101815.66;5071470;28;1902;-72
2021/03/24 09:09:49;;;;;;;;;;;;;;;17.77;59.10;101813.09;5091814;28;1055;-72
2021/03/24 09:12:36;;;;;;;;;;;;;;;17.76;58.87;101822.75;5091758;28;1325;-71
2021/03/24 09:15:08;;;;;;;;;;;;;;;17.75;58.61;101822.84;5110239;28;1161;-71
2021/03/24 09:17:46;;;;;;;;;;;;;;;17.72;58.67;101826.41;5110400;28;1394;-72
2021/03/24 09:20:36;;;;;;;;;;;;;;;17.73;58.12;101824.63;5091832;28;953;-72
2021/03/24 09:23:21;;;;;;;;;;;;;;;17.72;58.04;101820.31;5061733;28;1255;-73
2021/03/24 09:26:05;;;;;;;;;;;;;;;17.72;58.26;101821.13;5109873;28;1975;-72
2021/03/24 09:28:37;;;;;;;;;;;;;;;17.71;57.92;101816.81;5074678;28;1186;-72
2021/03/24 09:31:04;;;;;;;;;;;;;;;17.72;58.07;101825.56;5110075;28;1330;-73
2021/03/24 09:33:51;;;;;;;;;;;;;;;17.69;57.75;101818.63;5091925;28;1021;-73
2021/03/24 09:36:37;;;;;;;;;;;;;;;17.68;57.82;101813.41;5109710;28;1220;-72
2021/03/24 09:39:16;;;;;;;;;;;;;;;17.68;57.87;101819.56;5109664;28;1140;-72
2021/03/24 09:41:56;;;;;;;;;;;;;;;17.67;57.76;101820.44;5090911;28;1326;-71
2021/03/24 09:44:26;;;;;;;;;;;;;;;17.67;57.67;101820.44;5109512;28;1479;-73
2021/03/24 09:46:54;;;;;;;;;;;;;;;17.66;57.67;101821.34;5109246;28;1917;-73
2021/03/24 09:49:24;;;;;;;;;;;;;;;17.66;57.71;101816.09;5091506;28;1147;-72
2021/03/24 09:52:05;;;;;;;;;;;;;;;17.64;57.54;101815.28;5090845;28;1328;-72
2021/03/24 09:54:31;;;;;;;;;;;;;;;17.65;57.60;101817.03;5109805;28;1008;-73
2021/03/24 09:57:02;;;;;;;;;;;;;;;17.63;57.47;101813.56;5109301;28;1259;-72
2021/03/24 09:59:29;;;;;;;;;;;;;;;17.63;57.58;101810.94;5091064;28;1095;-73
2021/03/24 10:02:02;;;;;;;;;;;;;;;17.64;57.55;101817.06;5090586;28;1251;-72
2021/03/24 10:04:44;;;;;;;;;;;;;;;17.64;57.71;101811.78;5090933;28;1011;-72
2021/03/24 10:07:15;;;;;;;;;;;;;;;17.62;57.46;101813.63;5083995;28;1980;-72
2021/03/24 10:09:50;;;;;;;;;;;;;;;17.63;58.74;101816.19;5101997;28;970;-69
2021/03/24 10:12:25;;;;;;;;;;;;;;;17.70;55.45;101812.44;5088388;27;1499;-69
2021/03/24 10:14:57;;;;;;;;;;;;;;;17.62;52.23;101809.22;5104623;27;1615;-69
2021/03/24 10:17:28;;;;;;;;;;;;;;;17.49;50.15;101814.03;5088444;28;1668;-69
2021/03/24 10:20:06;;;;;;;;;;;;;;;17.45;53.38;101812.41;5108836;28;1058;-69
2021/03/24 10:22:40;;;;;;;;;;;;;;;17.41;50.35;101809.94;5109508;27;1384;-70
2021/03/24 10:25:12;;;;;;;;;;;;;;;17.34;49.42;101801.41;5108093;28;1121;-72
2021/03/24 10:27:45;;;;;;;;;;;;;;;17.38;50.07;101813.56;5107107;28;1934;-70
2021/03/24 10:30:11;;;;;;;;;;;;;;;17.41;50.75;101810.81;5091203;27;1621;-70
2021/03/24 10:32:47;;;;;;;;;;;;;;;17.53;50.67;101803.38;5117440;27;1291;-71
2021/03/24 10:35:36;;;;;;;;;;;;;;;17.35;51.01;101803.13;5090808;28;1199;-71
2021/03/24 10:38:11;;;;;;;;;;;;;;;17.33;51.65;101801.44;5107497;28;1357;-70
2021/03/24 10:40:43;;;;;;;;;;;;;;;17.30;51.30;101798.91;5108282;28;1163;-72
2021/03/24 10:43:09;;;;;;;;;;;;;;;17.31;51.38;101798.00;5108488;28;1136;-70
2021/03/24 10:45:43;;;;;;;;;;;;;;;17.39;50.66;101810.00;5108194;28;1105;-70
2021/03/24 10:48:22;;;;;;;;;;;;;;;17.37;51.50;101803.06;5107109;28;1902;-71
2021/03/24 10:50:51;;;;;;;;;;;;;;;17.39;51.81;101801.22;5096304;27;1301;-70
2021/03/24 10:53:31;;;;;;;;;;;;;;;17.35;51.20;101797.84;5085961;28;1372;-73
2021/03/24 10:56:11;;;;;;;;;;;;;;;17.43;51.25;101793.16;5068613;28;1303;-70
2021/03/24 10:58:55;;;;;;;;;;;;;;;17.47;51.71;101792.16;5068658;28;1158;-71
2021/03/24 11:01:25;;;;;;;;;;;;;;;17.50;51.89;101793.81;5091853;28;1327;-71
2021/03/24 11:04:21;;;;;;;;;;;;;;;17.52;52.20;101789.34;5086770;28;1176;-71
2021/03/24 11:06:56;;;;;;;;;;;;;;;17.54;52.64;101790.16;4967454;28;1919;-70
2021/03/24 11:09:56;;;;;;;;;;;;;;;17.55;53.03;101791.91;5078475;28;1137;-70
2021/03/24 11:12:33;;;;;;;;;;;;;;;17.55;53.52;101786.63;5068909;28;1292;-71
2021/03/24 11:15:19;;;;;;;;;;;;;;;17.56;53.66;101791.00;5087287;28;1106;-70
2021/03/24 11:17:47;;;;;;;;;;;;;;;17.57;53.99;101794.50;5068288;28;1385;-71
2021/03/24 11:20:33;;;;;;;;;;;;;;;17.57;54.15;101800.59;5087205;28;1379;-72
2021/03/24 11:23:02;;;;;;;;;;;;;;;17.57;54.76;101794.50;5053186;28;1720;-69
2021/03/24 11:25:31;;;;;;;;;;;;;;;17.58;55.00;101791.78;5087056;28;1219;-69
2021/03/24 11:27:57;;;;;;;;;;;;;;;17.58;54.79;101793.56;5075039;28;1980;-69
2021/03/24 11:30:42;;;;;;;;;;;;;;;17.58;54.99;101789.16;5069781;28;1267;-70
2021/03/24 11:33:12;;;;;;;;;;;;;;;17.58;55.13;101791.78;5068016;28;1359;-70
2021/03/24 11:35:42;;;;;;;;;;;;;;;17.60;55.34;101791.75;5087141;28;1142;-70
2021/03/24 11:38:29;;;;;;;;;;;;;;;17.58;55.57;101786.53;5068043;28;1222;-70
2021/03/24 11:41:00;;;;;;;;;;;;;;;17.59;55.52;101785.63;5054538;28;1540;-70
2021/03/24 11:43:30;;;;;;;;;;;;;;;17.66;55.73;101781.84;5086029;28;1074;-71
2021/03/24 11:46:07;;;;;;;;;;;;;;;17.70;55.65;101783.44;5068568;28;1288;-67
2021/03/24 11:48:40;;;;;;;;;;;;;;;17.66;55.71;101783.63;5096496;28;1211;-67
2021/03/24 11:51:36;;;;;;;;;;;;;;;17.64;56.01;101786.31;5095167;28;1260;-69
2021/03/24 11:54:11;;;;;;;;;;;;;;;17.64;56.07;101786.31;5033979;28;1158;-69
2021/03/24 11:56:47;;;;;;;;;;;;;;;17.65;56.43;101779.28;5088877;28;1239;-67
2021/03/24 11:59:13;;;;;;;;;;;;;;;17.68;56.92;101787.06;5098600;28;1511;-68
2021/03/24 12:01:39;;;;;;;;;;;;;;;17.70;56.99;101779.94;5106949;28;1279;-70
2021/03/24 12:04:18;;;;;;;;;;;;;;;17.72;57.21;101773.69;5108379;28;1094;-70
2021/03/24 12:06:53;;;;;;;;;;;;;;;17.71;56.71;101777.28;5092124;28;1901;-68
2021/03/24 12:09:21;;;;;;;;;;;;;;;17.68;56.87;101785.28;5113513;28;1067;-70
2021/03/24 12:11:48;;;;;;;;;;;;;;;17.68;57.34;101777.38;5106912;28;1353;-68
2021/03/24 12:14:17;;;;;;;;;;;;;;;17.63;55.84;101757.41;5106406;28;1039;-71
2021/03/24 12:16:46;;;;;;;;;;;;;;;17.70;55.83;101774.69;5091222;28;1212;-71
2021/03/24 12:19:36;;;;;;;;;;;;;;;17.71;56.80;101761.47;5105794;28;1191;-70
2021/03/24 12:22:18;;;;;;;;;;;;;;;17.75;56.74;101763.06;5061271;28;1280;-72
2021/03/24 12:24:45;;;;;;;;;;;;;;;17.74;56.77;101760.50;5103251;28;1125;-71
2021/03/24 12:27:11;;;;;;;;;;;;;;;17.73;56.82;101750.84;5088318;28;1906;-71
2021/03/24 12:29:40;;;;;;;;;;;;;;;17.72;57.25;101750.00;5104822;28;1066;-71
2021/03/24 12:32:16;;;;;;;;;;;;;;;17.73;57.85;101743.81;5087933;28;1311;-73
2021/03/24 12:35:05;;;;;;;;;;;;;;;17.78;57.71;101756.84;5091556;28;1546;-72
2021/03/24 12:37:47;;;;;;;;;;;;;;;17.74;57.93;101745.53;5087650;28;1410;-72
2021/03/24 12:40:23;;;;;;;;;;;;;;;17.72;58.80;101742.09;5088407;28;1201;-71
2021/03/24 12:43:05;;;;;;;;;;;;;;;17.71;59.65;101740.38;5092912;28;1409;-70
2021/03/24 12:45:38;;;;;;;;;;;;;;;17.71;60.29;101735.13;5088102;28;1440;-70
2021/03/24 12:48:09;;;;;;;;;;;;;;;17.71;60.90;101750.94;5100362;27;1991;-71
2021/03/24 12:50:46;;;;;;;;;;;;;;;17.76;60.66;101743.69;5108326;27;1290;-71
2021/03/24 12:53:31;;;;;;;;;;;;;;;17.79;61.90;101737.44;5059788;28;1638;-69
2021/03/24 12:56:20;;;;;;;;;;;;;;;17.88;61.93;101737.97;5085558;28;1834;-73
2021/03/24 12:58:49;;;;;;;;;;;;;;;17.84;62.41;101728.44;5070911;28;1391;-72
2021/03/24 13:01:34;;;;;;;;;;;;;;;17.79;62.26;101727.78;5085389;28;1379;-70
2021/03/24 13:04:03;;;;;;;;;;;;;;;17.78;61.84;101727.84;5091726;28;1129;-70
2021/03/24 13:06:42;;;;;;;;;;;;;;;17.77;62.07;101715.56;5091445;28;1906;-71
2021/03/24 13:09:29;;;;;;;;;;;;;;;17.92;62.50;101705.31;5091832;28;1617;-83
2021/03/24 13:12:04;;;;;;;;;;;;;;;17.93;61.49;101708.81;5075091;28;1243;-74
2021/03/24 13:14:40;;;;;;;;;;;;;;;17.91;61.69;101705.34;5088359;28;1489;-74
2021/03/24 13:17:16;;;;;;;;;;;;;;;17.87;61.58;101699.34;5074230;28;1499;-70
2021/03/24 13:19:50;;;;;;;;;;;;;;;17.88;61.50;101694.94;5091654;28;1352;-69
2021/03/24 13:22:27;;;;;;;;;;;;;;;17.87;61.63;101694.06;5069367;28;1390;-71